San Juan Enterprise — WDD9563 — position and weather

sailwx.info

Track history (hours):
 
Tides and Currents Weather Stations Pressure Air Temp Water Temp Dewpoint Dewpoint Depression Visibility Wind Speed Wind Dir Waves Ship Positions

San Juan Enterprise

Owner: SAN JUAN MARINE FREIGHT CO LLC, ANACORTES, WA. More information available from US FCC via Universal Licensing System and Coast Guard Vessel Documentation Center.

Last reported at 2015-Sep-01 21:31 UTC. Time now 2015-Sep-01 22:17 UTC.
Position N 48°33' W 122°40'.

Length 30 m.

MMSI: 367313160.

Date/timePositionNaut miles runAvg speedWind from/ knotsBaromVisibWave heightAir tempDewpointWater temp
2015-Sep-01 21:31N 48°33' W 122°40'2 2.1
2015-Sep-01 20:26N 48°31' W 122°37'8 8.9
2015-Sep-01 19:33N 48°32' W 122°49'7 7.2
2015-Sep-01 18:33N 48°32' W 122°60'0 0.1
2015-Sep-01 17:33N 48°32' W 123°00'4 3.6
2015-Sep-01 16:33N 48°33' W 122°55'13 0.7
2015-Aug-31 23:32N 48°31' W 122°36'7 7.0
2015-Aug-31 22:33N 48°33' W 122°46'3 2.7
2015-Aug-31 21:33N 48°35' W 122°49'0 0.0
2015-Aug-31 20:33N 48°35' W 122°49'0 0.0
2015-Aug-31 19:32N 48°35' W 122°49'0 0.0
2015-Aug-31 18:34N 48°35' W 122°49'0 0.0
2015-Aug-31 17:30N 48°35' W 122°49'1 1.3
2015-Aug-31 16:34N 48°36' W 122°49'0 0.0
2015-Aug-31 15:32N 48°36' W 122°49'5 4.9
2015-Aug-31 14:33N 48°32' W 122°46'7 2.6
2015-Aug-31 12:03N 48°31' W 122°36'0 0.0
2015-Aug-31 10:10N 48°31' W 122°36'0 0.0
2015-Aug-31 09:30N 48°31' W 122°36'0 0.0
2015-Aug-31 08:31N 48°31' W 122°36'0 0.0
2015-Aug-31 07:31N 48°31' W 122°36'0 0.0
2015-Aug-31 06:33N 48°31' W 122°36'0 0.0
2015-Aug-31 05:31N 48°31' W 122°36'0 0.0
2015-Aug-31 04:28N 48°31' W 122°36'0 0.0
2015-Aug-31 00:31N 48°31' W 122°36'0 0.1
2015-Aug-30 23:16N 48°31' W 122°36'5 7.5
2015-Aug-30 22:34N 48°34' W 122°43'2 2.3
2015-Aug-30 21:32N 48°32' W 122°42'4 3.3
2015-Aug-30 20:28N 48°31' W 122°36'0 0.0
2015-Aug-30 19:28N 48°31' W 122°36'0 0.0
2015-Aug-30 18:29N 48°31' W 122°36'0 0.0
2015-Aug-30 17:31N 48°31' W 122°36'0 0.0
2015-Aug-30 16:28N 48°31' W 122°36'0 0.0
2015-Aug-30 15:32N 48°31' W 122°36'0 0.0
2015-Aug-30 14:30N 48°31' W 122°36'0 0.0
2015-Aug-29 19:24N 48°31' W 122°36'0 0.0
2015-Aug-29 18:32N 48°31' W 122°36'0 0.0
2015-Aug-29 17:33N 48°31' W 122°36'0 0.0
2015-Aug-29 16:33N 48°31' W 122°36'0 0.0
2015-Aug-29 15:33N 48°31' W 122°36'0 0.0
2015-Aug-29 14:33N 48°31' W 122°36'0 0.0
2015-Aug-29 13:33N 48°31' W 122°36'0 0.0
2015-Aug-29 12:33N 48°31' W 122°36'0 0.0
2015-Aug-29 11:33N 48°31' W 122°36'0 0.0
2015-Aug-29 10:33N 48°31' W 122°36'0 0.0
2015-Aug-29 09:33N 48°31' W 122°36'0 0.0
2015-Aug-29 08:33N 48°31' W 122°36'0 0.0
2015-Aug-29 07:33N 48°31' W 122°36'0 0.0
2015-Aug-29 06:33N 48°31' W 122°36'0 0.0
2015-Aug-29 05:33N 48°31' W 122°36'0 0.0
2015-Aug-29 04:32N 48°31' W 122°36'0 0.0
2015-Aug-29 03:33N 48°31' W 122°36'0 0.0
2015-Aug-29 02:33N 48°31' W 122°36'0 0.0
2015-Aug-29 01:33N 48°31' W 122°36'0 0.0
2015-Aug-29 00:33N 48°31' W 122°36'0 0.0
2015-Aug-28 23:33N 48°31' W 122°36'7 7.4
2015-Aug-28 22:34N 48°34' W 122°47'2 2.2
2015-Aug-28 21:33N 48°36' W 122°49'2 2.3
2015-Aug-28 20:33N 48°33' W 122°49'3 3.1
2015-Aug-28 19:33N 48°36' W 122°49'7 7.4
2015-Aug-28 18:33N 48°32' W 122°40'3 2.6
2015-Aug-28 17:33N 48°31' W 122°36'0 0.0
2015-Aug-28 16:27N 48°31' W 122°36'0 0.0
2015-Aug-28 15:33N 48°31' W 122°36'0 0.0
2015-Aug-28 14:33N 48°31' W 122°36'0 0.0
2015-Aug-28 13:33N 48°31' W 122°36'0 0.0
2015-Aug-28 12:33N 48°31' W 122°36'0 0.0
2015-Aug-28 11:33N 48°31' W 122°36'0 0.0
2015-Aug-28 10:33N 48°31' W 122°36'0 0.0
2015-Aug-28 09:33N 48°31' W 122°36'0 0.0
2015-Aug-28 08:27N 48°31' W 122°36'0 0.0
2015-Aug-28 07:15N 48°31' W 122°36'0 0.0
2015-Aug-28 06:15N 48°31' W 122°36'0 0.0
2015-Aug-28 05:33N 48°31' W 122°36'0 0.0
2015-Aug-28 04:33N 48°31' W 122°36'0 0.0
2015-Aug-28 03:21N 48°31' W 122°36'0 0.0
2015-Aug-28 02:33N 48°31' W 122°36'0 0.0
2015-Aug-28 01:33N 48°31' W 122°36'0 0.0
2015-Aug-28 00:33N 48°31' W 122°36'2 2.0
2015-Aug-27 23:33N 48°33' W 122°36'2 2.0
2015-Aug-27 22:33N 48°31' W 122°36'0 0.0
2015-Aug-27 21:29N 48°31' W 122°36'0 0.0
2015-Aug-27 20:29N 48°31' W 122°36'0 0.0
2015-Aug-27 19:29N 48°31' W 122°36'0 0.0
2015-Aug-27 18:23N 48°31' W 122°36'0 0.0
2015-Aug-27 17:29N 48°31' W 122°36'0 0.0
2015-Aug-27 16:29N 48°31' W 122°36'0 0.0
2015-Aug-27 15:29N 48°31' W 122°36'0 0.0
2015-Aug-27 14:29N 48°31' W 122°36'0 0.0
2015-Aug-27 13:23N 48°31' W 122°36'0 0.0
2015-Aug-27 12:29N 48°31' W 122°36'0 0.0
2015-Aug-27 11:29N 48°31' W 122°36'0 0.0
2015-Aug-27 10:29N 48°31' W 122°36'0 0.0
2015-Aug-27 09:23N 48°31' W 122°36'0 0.0
2015-Aug-27 08:29N 48°31' W 122°36'0 0.0
2015-Aug-27 07:29N 48°31' W 122°36'0 0.0
2015-Aug-27 06:29N 48°31' W 122°36'0 0.0
2015-Aug-27 05:29N 48°31' W 122°36'0 0.0
2015-Aug-27 04:29N 48°31' W 122°36'0 0.0
2015-Aug-27 03:29N 48°31' W 122°36'0 0.0
2015-Aug-27 02:29N 48°31' W 122°36'0 0.0
2015-Aug-27 01:29N 48°31' W 122°36'0 0.0
2015-Aug-27 00:29N 48°31' W 122°36'0 0.0
2015-Aug-26 23:23N 48°31' W 122°36'0 0.0
2015-Aug-26 22:29N 48°31' W 122°36'0 0.0
2015-Aug-26 21:17N 48°31' W 122°36'0 0.0
2015-Aug-26 20:29N 48°31' W 122°36'4 4.0
2015-Aug-26 19:33N 48°33' W 122°41'0 0.0
2015-Aug-26 18:33N 48°33' W 122°41'0 0.1
2015-Aug-26 17:34N 48°33' W 122°41'3 3.3
2015-Aug-26 16:32N 48°31' W 122°37'0 0.0
2015-Aug-26 15:32N 48°31' W 122°37'0 0.4
2015-Aug-26 14:33N 48°31' W 122°36'0 0.0
2015-Aug-26 13:30N 48°31' W 122°36'0 0.0
2015-Aug-26 12:30N 48°31' W 122°36'0 0.0
2015-Aug-26 11:30N 48°31' W 122°36'0 0.0
2015-Aug-26 10:30N 48°31' W 122°36'0 0.0
2015-Aug-26 09:30N 48°31' W 122°36'0 0.0
2015-Aug-26 08:30N 48°31' W 122°36'0 0.0
2015-Aug-26 07:24N 48°31' W 122°36'0 0.0
2015-Aug-26 06:30N 48°31' W 122°36'0 0.0
2015-Aug-26 05:30N 48°31' W 122°36'0 0.0
2015-Aug-26 04:30N 48°31' W 122°36'0 0.0
2015-Aug-26 03:30N 48°31' W 122°36'0 0.0
2015-Aug-26 02:24N 48°31' W 122°36'2 2.1
2015-Aug-26 01:33N 48°32' W 122°39'6 5.8
2015-Aug-26 00:33N 48°37' W 122°42'0 0.0
2015-Aug-25 23:33N 48°37' W 122°42'6 5.7
2015-Aug-25 22:33N 48°32' W 122°39'2 1.5
2015-Aug-25 21:34N 48°32' W 122°41'9 8.6
2015-Aug-25 20:33N 48°34' W 122°54'5 4.6
2015-Aug-25 19:33N 48°32' W 122°60'0 0.0
2015-Aug-25 18:33N 48°32' W 122°60'7 6.8
2015-Aug-25 17:33N 48°32' W 122°50'9 8.6
2015-Aug-25 16:34N 48°31' W 122°37'0 0.1
2015-Aug-25 15:31N 48°31' W 122°37'0 0.4
2015-Aug-25 14:33N 48°31' W 122°36'0 0.0
2015-Aug-25 13:33N 48°31' W 122°36'0 0.0
2015-Aug-25 12:33N 48°31' W 122°36'0 0.0
2015-Aug-25 11:33N 48°31' W 122°36'0 0.0
2015-Aug-25 10:33N 48°31' W 122°36'0 0.0
2015-Aug-25 09:33N 48°31' W 122°36'0 0.0
2015-Aug-25 08:33N 48°31' W 122°36'0 0.0
2015-Aug-25 07:33N 48°31' W 122°36'0 0.0
2015-Aug-25 06:30N 48°31' W 122°36'0 0.0
2015-Aug-25 05:33N 48°31' W 122°36'0 0.0
2015-Aug-25 04:33N 48°31' W 122°36'0 0.0
2015-Aug-25 03:33N 48°31' W 122°36'5 5.4
2015-Aug-25 02:33N 48°28' W 122°43'1 0.4
2015-Aug-24 22:32N 48°29' W 122°42'4 4.1
2015-Aug-24 21:34N 48°31' W 122°37'0 0.0
2015-Aug-24 20:33N 48°31' W 122°37'5 5.1
2015-Aug-24 19:34N 48°33' W 122°44'4 4.4
2015-Aug-24 18:33N 48°36' W 122°49'2 2.4
2015-Aug-24 17:34N 48°33' W 122°49'2 1.9
2015-Aug-24 16:34N 48°35' W 122°49'6 5.7
2015-Aug-24 15:34N 48°32' W 122°42'4 3.7
2015-Aug-24 14:33N 48°31' W 122°36'0 0.0
2015-Aug-24 13:33N 48°31' W 122°36'0 0.0
2015-Aug-24 12:33N 48°31' W 122°36'0 0.0
2015-Aug-24 11:33N 48°31' W 122°36'0 0.0
2015-Aug-24 10:27N 48°31' W 122°36'0 0.0
2015-Aug-24 09:33N 48°31' W 122°36'0 0.0
2015-Aug-24 08:33N 48°31' W 122°36'0 0.0
2015-Aug-24 07:33N 48°31' W 122°36'0 0.0
2015-Aug-24 06:33N 48°31' W 122°36'0 0.0
2015-Aug-24 05:33N 48°31' W 122°36'0 0.0
2015-Aug-24 04:27N 48°31' W 122°36'0 0.0
2015-Aug-24 03:33N 48°31' W 122°36'0 0.0
2015-Aug-24 02:33N 48°31' W 122°36'0 0.0
2015-Aug-24 01:33N 48°31' W 122°36'0 0.0
2015-Aug-24 00:27N 48°31' W 122°36'0 0.0
2015-Aug-23 23:33N 48°31' W 122°36'0 0.0
2015-Aug-23 22:33N 48°31' W 122°36'0 0.0
2015-Aug-23 21:33N 48°31' W 122°36'0 0.0
2015-Aug-23 20:33N 48°31' W 122°36'0 0.0
2015-Aug-23 19:33N 48°31' W 122°36'0 0.0
2015-Aug-23 18:33N 48°31' W 122°36'0 0.0
2015-Aug-23 17:33N 48°31' W 122°36'0 0.0
2015-Aug-23 16:27N 48°31' W 122°36'0 0.0
2015-Aug-23 15:33N 48°31' W 122°36'0 0.0
2015-Aug-23 14:33N 48°31' W 122°36'0 0.0
2015-Aug-23 13:33N 48°31' W 122°36'0 0.0
2015-Aug-23 12:33N 48°31' W 122°36'0 0.0
2015-Aug-23 11:33N 48°31' W 122°36'0 0.0
2015-Aug-23 10:33N 48°31' W 122°36'0 0.0
2015-Aug-23 09:27N 48°31' W 122°36'0 0.0
2015-Aug-23 08:33N 48°31' W 122°36'0 0.0
2015-Aug-23 07:33N 48°31' W 122°36'0 0.0
2015-Aug-23 06:33N 48°31' W 122°36'0 0.0
2015-Aug-23 05:27N 48°31' W 122°36'0 0.0
2015-Aug-23 04:27N 48°31' W 122°36'0 0.0
2015-Aug-23 03:33N 48°31' W 122°36'0 0.0
2015-Aug-23 02:27N 48°31' W 122°36'4 4.8
2015-Aug-23 01:33N 48°32' W 122°43'5 2.6
2015-Aug-22 23:33N 48°35' W 122°49'6 6.0
2015-Aug-22 22:33N 48°36' W 122°40'4 4.2
2015-Aug-22 21:33N 48°39' W 122°35'  
Track history (hours):
 
Tides and Currents Weather Stations Pressure Air Temp Water Temp Dewpoint Dewpoint Depression Visibility Wind Speed Wind Dir Waves Ship Positions

San Juan Enterprise

Owner: SAN JUAN MARINE FREIGHT CO LLC, ANACORTES, WA. More information available from US FCC via Universal Licensing System and Coast Guard Vessel Documentation Center.

Last reported at 2015-Sep-01 21:31 UTC. Time now 2015-Sep-01 22:17 UTC.
Position N 48°33' W 122°40'.

Length 30 m.

MMSI: 367313160.

Date/timePositionNaut miles runAvg speedWind from/ knotsBaromVisibWave heightAir tempDewpointWater temp
2015-Sep-01 21:31N 48°33' W 122°40'2 2.1
2015-Sep-01 20:26N 48°31' W 122°37'8 8.9
2015-Sep-01 19:33N 48°32' W 122°49'7 7.2
2015-Sep-01 18:33N 48°32' W 122°60'0 0.1
2015-Sep-01 17:33N 48°32' W 123°00'4 3.6
2015-Sep-01 16:33N 48°33' W 122°55'13 0.7
2015-Aug-31 23:32N 48°31' W 122°36'7 7.0
2015-Aug-31 22:33N 48°33' W 122°46'3 2.7
2015-Aug-31 21:33N 48°35' W 122°49'0 0.0
2015-Aug-31 20:33N 48°35' W 122°49'0 0.0
2015-Aug-31 19:32N 48°35' W 122°49'0 0.0
2015-Aug-31 18:34N 48°35' W 122°49'0 0.0
2015-Aug-31 17:30N 48°35' W 122°49'1 1.3
2015-Aug-31 16:34N 48°36' W 122°49'0 0.0
2015-Aug-31 15:32N 48°36' W 122°49'5 4.9
2015-Aug-31 14:33N 48°32' W 122°46'7 2.6
2015-Aug-31 12:03N 48°31' W 122°36'0 0.0
2015-Aug-31 10:10N 48°31' W 122°36'0 0.0
2015-Aug-31 09:30N 48°31' W 122°36'0 0.0
2015-Aug-31 08:31N 48°31' W 122°36'0 0.0
2015-Aug-31 07:31N 48°31' W 122°36'0 0.0
2015-Aug-31 06:33N 48°31' W 122°36'0 0.0
2015-Aug-31 05:31N 48°31' W 122°36'0 0.0
2015-Aug-31 04:28N 48°31' W 122°36'0 0.0
2015-Aug-31 00:31N 48°31' W 122°36'0 0.1
2015-Aug-30 23:16N 48°31' W 122°36'5 7.5
2015-Aug-30 22:34N 48°34' W 122°43'2 2.3
2015-Aug-30 21:32N 48°32' W 122°42'4 3.3
2015-Aug-30 20:28N 48°31' W 122°36'0 0.0
2015-Aug-30 19:28N 48°31' W 122°36'0 0.0
2015-Aug-30 18:29N 48°31' W 122°36'0 0.0
2015-Aug-30 17:31N 48°31' W 122°36'0 0.0
2015-Aug-30 16:28N 48°31' W 122°36'0 0.0
2015-Aug-30 15:32N 48°31' W 122°36'0 0.0
2015-Aug-30 14:30N 48°31' W 122°36'0 0.0
2015-Aug-29 19:24N 48°31' W 122°36'0 0.0
2015-Aug-29 18:32N 48°31' W 122°36'0 0.0
2015-Aug-29 17:33N 48°31' W 122°36'0 0.0
2015-Aug-29 16:33N 48°31' W 122°36'0 0.0
2015-Aug-29 15:33N 48°31' W 122°36'0 0.0
2015-Aug-29 14:33N 48°31' W 122°36'0 0.0
2015-Aug-29 13:33N 48°31' W 122°36'0 0.0
2015-Aug-29 12:33N 48°31' W 122°36'0 0.0
2015-Aug-29 11:33N 48°31' W 122°36'0 0.0
2015-Aug-29 10:33N 48°31' W 122°36'0 0.0
2015-Aug-29 09:33N 48°31' W 122°36'0 0.0
2015-Aug-29 08:33N 48°31' W 122°36'0 0.0
2015-Aug-29 07:33N 48°31' W 122°36'0 0.0
2015-Aug-29 06:33N 48°31' W 122°36'0 0.0
2015-Aug-29 05:33N 48°31' W 122°36'0 0.0
2015-Aug-29 04:32N 48°31' W 122°36'0 0.0
2015-Aug-29 03:33N 48°31' W 122°36'0 0.0
2015-Aug-29 02:33N 48°31' W 122°36'0 0.0
2015-Aug-29 01:33N 48°31' W 122°36'0 0.0
2015-Aug-29 00:33N 48°31' W 122°36'0 0.0
2015-Aug-28 23:33N 48°31' W 122°36'7 7.4
2015-Aug-28 22:34N 48°34' W 122°47'2 2.2
2015-Aug-28 21:33N 48°36' W 122°49'2 2.3
2015-Aug-28 20:33N 48°33' W 122°49'3 3.1
2015-Aug-28 19:33N 48°36' W 122°49'7 7.4
2015-Aug-28 18:33N 48°32' W 122°40'3 2.6
2015-Aug-28 17:33N 48°31' W 122°36'0 0.0
2015-Aug-28 16:27N 48°31' W 122°36'0 0.0
2015-Aug-28 15:33N 48°31' W 122°36'0 0.0
2015-Aug-28 14:33N 48°31' W 122°36'0 0.0
2015-Aug-28 13:33N 48°31' W 122°36'0 0.0
2015-Aug-28 12:33N 48°31' W 122°36'0 0.0
2015-Aug-28 11:33N 48°31' W 122°36'0 0.0
2015-Aug-28 10:33N 48°31' W 122°36'0 0.0
2015-Aug-28 09:33N 48°31' W 122°36'0 0.0
2015-Aug-28 08:27N 48°31' W 122°36'0 0.0
2015-Aug-28 07:15N 48°31' W 122°36'0 0.0
2015-Aug-28 06:15N 48°31' W 122°36'0 0.0
2015-Aug-28 05:33N 48°31' W 122°36'0 0.0
2015-Aug-28 04:33N 48°31' W 122°36'0 0.0
2015-Aug-28 03:21N 48°31' W 122°36'0 0.0
2015-Aug-28 02:33N 48°31' W 122°36'0 0.0
2015-Aug-28 01:33N 48°31' W 122°36'0 0.0
2015-Aug-28 00:33N 48°31' W 122°36'2 2.0
2015-Aug-27 23:33N 48°33' W 122°36'2 2.0
2015-Aug-27 22:33N 48°31' W 122°36'0 0.0
2015-Aug-27 21:29N 48°31' W 122°36'0 0.0
2015-Aug-27 20:29N 48°31' W 122°36'0 0.0
2015-Aug-27 19:29N 48°31' W 122°36'0 0.0
2015-Aug-27 18:23N 48°31' W 122°36'0 0.0
2015-Aug-27 17:29N 48°31' W 122°36'0 0.0
2015-Aug-27 16:29N 48°31' W 122°36'0 0.0
2015-Aug-27 15:29N 48°31' W 122°36'0 0.0
2015-Aug-27 14:29N 48°31' W 122°36'0 0.0
2015-Aug-27 13:23N 48°31' W 122°36'0 0.0
2015-Aug-27 12:29N 48°31' W 122°36'0 0.0
2015-Aug-27 11:29N 48°31' W 122°36'0 0.0
2015-Aug-27 10:29N 48°31' W 122°36'0 0.0
2015-Aug-27 09:23N 48°31' W 122°36'0 0.0
2015-Aug-27 08:29N 48°31' W 122°36'0 0.0
2015-Aug-27 07:29N 48°31' W 122°36'0 0.0
2015-Aug-27 06:29N 48°31' W 122°36'0 0.0
2015-Aug-27 05:29N 48°31' W 122°36'0 0.0
2015-Aug-27 04:29N 48°31' W 122°36'0 0.0
2015-Aug-27 03:29N 48°31' W 122°36'0 0.0
2015-Aug-27 02:29N 48°31' W 122°36'0 0.0
2015-Aug-27 01:29N 48°31' W 122°36'0 0.0
2015-Aug-27 00:29N 48°31' W 122°36'0 0.0
2015-Aug-26 23:23N 48°31' W 122°36'0 0.0
2015-Aug-26 22:29N 48°31' W 122°36'0 0.0
2015-Aug-26 21:17N 48°31' W 122°36'0 0.0
2015-Aug-26 20:29N 48°31' W 122°36'4 4.0
2015-Aug-26 19:33N 48°33' W 122°41'0 0.0
2015-Aug-26 18:33N 48°33' W 122°41'0 0.1
2015-Aug-26 17:34N 48°33' W 122°41'3 3.3
2015-Aug-26 16:32N 48°31' W 122°37'0 0.0
2015-Aug-26 15:32N 48°31' W 122°37'0 0.4
2015-Aug-26 14:33N 48°31' W 122°36'0 0.0
2015-Aug-26 13:30N 48°31' W 122°36'0 0.0
2015-Aug-26 12:30N 48°31' W 122°36'0 0.0
2015-Aug-26 11:30N 48°31' W 122°36'0 0.0
2015-Aug-26 10:30N 48°31' W 122°36'0 0.0
2015-Aug-26 09:30N 48°31' W 122°36'0 0.0
2015-Aug-26 08:30N 48°31' W 122°36'0 0.0
2015-Aug-26 07:24N 48°31' W 122°36'0 0.0
2015-Aug-26 06:30N 48°31' W 122°36'0 0.0
2015-Aug-26 05:30N 48°31' W 122°36'0 0.0
2015-Aug-26 04:30N 48°31' W 122°36'0 0.0
2015-Aug-26 03:30N 48°31' W 122°36'0 0.0
2015-Aug-26 02:24N 48°31' W 122°36'2 2.1
2015-Aug-26 01:33N 48°32' W 122°39'6 5.8
2015-Aug-26 00:33N 48°37' W 122°42'0 0.0
2015-Aug-25 23:33N 48°37' W 122°42'6 5.7
2015-Aug-25 22:33N 48°32' W 122°39'2 1.5
2015-Aug-25 21:34N 48°32' W 122°41'9 8.6
2015-Aug-25 20:33N 48°34' W 122°54'5 4.6
2015-Aug-25 19:33N 48°32' W 122°60'0 0.0
2015-Aug-25 18:33N 48°32' W 122°60'7 6.8
2015-Aug-25 17:33N 48°32' W 122°50'9 8.6
2015-Aug-25 16:34N 48°31' W 122°37'0 0.1
2015-Aug-25 15:31N 48°31' W 122°37'0 0.4
2015-Aug-25 14:33N 48°31' W 122°36'0 0.0
2015-Aug-25 13:33N 48°31' W 122°36'0 0.0
2015-Aug-25 12:33N 48°31' W 122°36'0 0.0
2015-Aug-25 11:33N 48°31' W 122°36'0 0.0
2015-Aug-25 10:33N 48°31' W 122°36'0 0.0
2015-Aug-25 09:33N 48°31' W 122°36'0 0.0
2015-Aug-25 08:33N 48°31' W 122°36'0 0.0
2015-Aug-25 07:33N 48°31' W 122°36'0 0.0
2015-Aug-25 06:30N 48°31' W 122°36'0 0.0
2015-Aug-25 05:33N 48°31' W 122°36'0 0.0
2015-Aug-25 04:33N 48°31' W 122°36'0 0.0
2015-Aug-25 03:33N 48°31' W 122°36'5 5.4
2015-Aug-25 02:33N 48°28' W 122°43'1 0.4
2015-Aug-24 22:32N 48°29' W 122°42'4 4.1
2015-Aug-24 21:34N 48°31' W 122°37'0 0.0
2015-Aug-24 20:33N 48°31' W 122°37'5 5.1
2015-Aug-24 19:34N 48°33' W 122°44'4 4.4
2015-Aug-24 18:33N 48°36' W 122°49'2 2.4
2015-Aug-24 17:34N 48°33' W 122°49'2 1.9
2015-Aug-24 16:34N 48°35' W 122°49'6 5.7
2015-Aug-24 15:34N 48°32' W 122°42'4 3.7
2015-Aug-24 14:33N 48°31' W 122°36'0 0.0
2015-Aug-24 13:33N 48°31' W 122°36'0 0.0
2015-Aug-24 12:33N 48°31' W 122°36'0 0.0
2015-Aug-24 11:33N 48°31' W 122°36'0 0.0
2015-Aug-24 10:27N 48°31' W 122°36'0 0.0
2015-Aug-24 09:33N 48°31' W 122°36'0 0.0
2015-Aug-24 08:33N 48°31' W 122°36'0 0.0
2015-Aug-24 07:33N 48°31' W 122°36'0 0.0
2015-Aug-24 06:33N 48°31' W 122°36'0 0.0
2015-Aug-24 05:33N 48°31' W 122°36'0 0.0
2015-Aug-24 04:27N 48°31' W 122°36'0 0.0
2015-Aug-24 03:33N 48°31' W 122°36'0 0.0
2015-Aug-24 02:33N 48°31' W 122°36'0 0.0
2015-Aug-24 01:33N 48°31' W 122°36'0 0.0
2015-Aug-24 00:27N 48°31' W 122°36'0 0.0
2015-Aug-23 23:33N 48°31' W 122°36'0 0.0
2015-Aug-23 22:33N 48°31' W 122°36'0 0.0
2015-Aug-23 21:33N 48°31' W 122°36'0 0.0
2015-Aug-23 20:33N 48°31' W 122°36'0 0.0
2015-Aug-23 19:33N 48°31' W 122°36'0 0.0
2015-Aug-23 18:33N 48°31' W 122°36'0 0.0
2015-Aug-23 17:33N 48°31' W 122°36'0 0.0
2015-Aug-23 16:27N 48°31' W 122°36'0 0.0
2015-Aug-23 15:33N 48°31' W 122°36'0 0.0
2015-Aug-23 14:33N 48°31' W 122°36'0 0.0
2015-Aug-23 13:33N 48°31' W 122°36'0 0.0
2015-Aug-23 12:33N 48°31' W 122°36'0 0.0
2015-Aug-23 11:33N 48°31' W 122°36'0 0.0
2015-Aug-23 10:33N 48°31' W 122°36'0 0.0
2015-Aug-23 09:27N 48°31' W 122°36'0 0.0
2015-Aug-23 08:33N 48°31' W 122°36'0 0.0
2015-Aug-23 07:33N 48°31' W 122°36'0 0.0
2015-Aug-23 06:33N 48°31' W 122°36'0 0.0
2015-Aug-23 05:27N 48°31' W 122°36'0 0.0
2015-Aug-23 04:27N 48°31' W 122°36'0 0.0
2015-Aug-23 03:33N 48°31' W 122°36'0 0.0
2015-Aug-23 02:27N 48°31' W 122°36'4 4.8
2015-Aug-23 01:33N 48°32' W 122°43'5 2.6
2015-Aug-22 23:33N 48°35' W 122°49'6 6.0
2015-Aug-22 22:33N 48°36' W 122°40'4 4.2
2015-Aug-22 21:33N 48°39' W 122°35'  

Dump ship's entire track history